createdAt,value
2023-02-05T00:00:42.890Z,73306.41
2023-02-05T00:06:06.925Z,73089.28
2023-02-05T00:11:10.786Z,72697.22
2023-02-05T00:16:19.336Z,72890.22
2023-02-05T00:21:24.745Z,72273.06
2023-02-05T00:26:28.412Z,72281.09
2023-02-05T00:31:33.610Z,72208.72
2023-02-05T00:36:38.535Z,72653.00
2023-02-05T00:41:42.284Z,72693.19
2023-02-05T00:46:47.320Z,71989.63
2023-02-05T00:51:51.141Z,72783.66
2023-02-05T00:56:54.858Z,72837.94
2023-02-05T01:01:59.954Z,72425.81
2023-02-05T01:07:03.759Z,72713.31
2023-02-05T01:12:07.562Z,72683.16
2023-02-05T01:17:12.632Z,73298.38
2023-02-05T01:22:16.351Z,72825.88
2023-02-05T01:27:20.189Z,73710.59
2023-02-05T01:32:25.650Z,72946.53
2023-02-05T01:37:29.362Z,73185.78
2023-02-05T01:42:34.229Z,72176.56
2023-02-05T01:47:39.514Z,71927.31
2023-02-05T01:52:43.306Z,71686.13
2023-02-05T01:57:48.090Z,71824.81
2023-02-05T02:02:53.689Z,72154.44
2023-02-05T02:07:57.512Z,70926.44
2023-02-05T02:13:02.403Z,70930.47
2023-02-05T02:18:27.725Z,71332.38
2023-02-05T02:23:41.594Z,71392.69
2023-02-05T02:28:52.001Z,71225.88
2023-02-05T02:34:02.184Z,70164.91
2023-02-05T02:39:14.257Z,69887.66
2023-02-05T02:44:24.700Z,70018.25
2023-02-05T02:49:34.409Z,69708.88
2023-02-05T02:54:41.121Z,69234.78
2023-02-05T02:59:49.518Z,69777.19
2023-02-05T03:10:38.904Z,71575.56
2023-02-05T03:15:46.030Z,70707.41
2023-02-05T03:20:54.004Z,70052.41
2023-02-05T03:25:57.923Z,69118.28
2023-02-05T03:31:19.790Z,68977.69
2023-02-05T03:36:31.367Z,67730.59
2023-02-05T03:41:59.560Z,67640.25
2023-02-05T03:47:19.090Z,66999.78
2023-02-05T03:52:29.102Z,66166.75
2023-02-05T03:57:40.397Z,65588.75
2023-02-05T04:02:47.154Z,65331.88
2023-02-05T04:07:56.448Z,65211.47
2023-02-05T04:13:04.792Z,65187.41
2023-02-05T04:18:11.733Z,64998.78
2023-02-05T04:23:15.582Z,64589.47
2023-02-05T04:28:21.273Z,64567.41
2023-02-05T04:33:27.669Z,64441.00
2023-02-05T04:38:31.575Z,64172.19
2023-02-05T04:43:35.526Z,64212.28
2023-02-05T04:48:40.971Z,64344.69
2023-02-05T04:53:45.039Z,64473.09
2023-02-05T04:58:48.859Z,64776.06
2023-02-05T05:03:53.967Z,64868.34
2023-02-05T05:08:57.765Z,64727.91
2023-02-05T05:14:01.551Z,64499.19
2023-02-05T05:19:07.141Z,63937.47
2023-02-05T05:24:10.843Z,63770.97
2023-02-05T05:29:15.498Z,63582.41
2023-02-05T05:34:20.677Z,63245.47
2023-02-05T05:39:41.853Z,62958.66
2023-02-05T05:44:50.176Z,62956.66
2023-02-05T05:49:55.287Z,62868.41
2023-02-05T05:54:59.027Z,62898.50
2023-02-05T06:00:02.973Z,62866.41
2023-02-05T06:05:17.489Z,62828.31
2023-02-05T06:10:21.249Z,62675.91
2023-02-05T06:15:26.799Z,62593.69
2023-02-05T06:20:31.867Z,62914.53
2023-02-05T06:25:35.889Z,63413.94
2023-02-05T06:30:39.955Z,63329.69
2023-02-05T06:35:45.077Z,63781.00
2023-02-05T06:40:49.108Z,63724.84
2023-02-05T06:45:53.360Z,64099.94
2023-02-05T06:50:58.628Z,64404.88
2023-02-05T06:56:02.371Z,64204.28
2023-02-05T07:01:06.482Z,64326.66
2023-02-05T07:06:12.455Z,65002.78
2023-02-05T07:11:16.537Z,65323.84
2023-02-05T07:16:20.382Z,65937.94
2023-02-05T07:21:25.801Z,73376.78
2023-02-05T07:26:29.511Z,75804.50
2023-02-05T07:31:33.443Z,71577.59
2023-02-05T07:36:38.591Z,68537.84
2023-02-05T07:41:42.268Z,67188.50
2023-02-05T07:46:52.272Z,67921.34
2023-02-05T07:51:57.384Z,72624.84
2023-02-05T07:57:02.672Z,77865.28
2023-02-05T08:02:06.458Z,80958.44
2023-02-05T08:07:12.897Z,77865.28
2023-02-05T08:12:16.593Z,72719.34
2023-02-05T08:17:20.320Z,69154.44
2023-02-05T08:22:25.579Z,67262.78
2023-02-05T08:27:30.140Z,66989.75
2023-02-05T08:32:34.317Z,66138.66
2023-02-05T08:37:39.432Z,66068.41
2023-02-05T08:42:43.212Z,65554.63
2023-02-05T08:47:47.123Z,65933.94
2023-02-05T08:52:52.489Z,66224.94
2023-02-05T08:57:56.370Z,66114.56
2023-02-05T09:03:00.117Z,66090.47
2023-02-05T09:08:05.569Z,66082.44
2023-02-05T09:13:09.323Z,67319.00
2023-02-05T09:18:13.200Z,66959.63
2023-02-05T09:23:19.512Z,66295.19
2023-02-05T09:28:23.383Z,65083.06
2023-02-05T09:33:27.198Z,63740.88
2023-02-05T09:38:32.371Z,63427.97
2023-02-05T09:43:49.546Z,63686.72
2023-02-05T09:49:00.999Z,63446.03
2023-02-05T09:54:17.036Z,62954.66
2023-02-05T09:59:23.701Z,63313.66
2023-02-05T10:04:28.273Z,63736.88
2023-02-05T10:09:45.953Z,64300.56
2023-02-05T10:15:05.875Z,64264.47
2023-02-05T10:20:22.097Z,65177.38
2023-02-05T10:25:45.696Z,64521.25
2023-02-05T10:30:57.264Z,64483.13
2023-02-05T10:36:03.820Z,64615.53
2023-02-05T10:41:16.549Z,64380.81
2023-02-05T10:46:21.131Z,64731.91
2023-02-05T10:51:33.373Z,67258.75
2023-02-05T10:56:38.512Z,66979.72
2023-02-05T11:01:42.508Z,64798.13
2023-02-05T11:06:48.790Z,63971.56
2023-02-05T11:11:54.925Z,63969.56
2023-02-05T11:16:59.426Z,63594.47
2023-02-05T11:22:05.272Z,63718.81
2023-02-05T11:27:32.990Z,63855.22
2023-02-05T11:32:38.868Z,64059.84
2023-02-05T11:37:42.756Z,64477.13
2023-02-05T11:42:58.052Z,64360.75
2023-02-05T11:48:03.945Z,64001.66
2023-02-05T11:53:14.721Z,64908.47
2023-02-05T11:58:36.224Z,65685.06
2023-02-05T12:03:40.868Z,66028.25
2023-02-05T12:08:49.387Z,65723.19
2023-02-05T12:14:06.501Z,64224.34
2023-02-05T12:19:19.664Z,64545.31
2023-02-05T12:24:54.134Z,64549.34
2023-02-05T12:30:08.278Z,64336.69
2023-02-05T12:35:33.881Z,65795.44
2023-02-05T12:40:51.032Z,63478.13
2023-02-05T12:46:07.040Z,63101.06
2023-02-05T12:51:21.625Z,63680.72
2023-02-05T12:56:45.009Z,62886.47
2023-02-05T13:01:55.112Z,63678.69
2023-02-05T13:07:05.828Z,64659.69
2023-02-05T13:12:13.376Z,66305.25
2023-02-05T13:17:22.680Z,65054.97
2023-02-05T13:22:42.283Z,66220.94
2023-02-05T13:28:08.817Z,65996.16
2023-02-05T13:33:14.150Z,65303.78
2023-02-05T13:38:42.238Z,62441.28
2023-02-05T13:44:36.622Z,62471.34
2023-02-05T13:50:09.684Z,63137.16
2023-02-05T13:55:34.296Z,63700.75
2023-02-05T14:00:40.832Z,63752.91
2023-02-05T14:05:46.037Z,62960.66
2023-02-05T14:10:59.228Z,62262.81
2023-02-05T14:16:33.780Z,62848.38
2023-02-05T14:22:00.910Z,62475.38
2023-02-05T14:27:05.030Z,62134.50
2023-02-05T14:32:11.164Z,62008.16
2023-02-05T14:37:31.860Z,62485.41
2023-02-05T14:42:35.863Z,62298.91
2023-02-05T14:47:43.151Z,62002.16
2023-02-05T14:52:53.683Z,61735.50
2023-02-05T14:58:03.233Z,61408.72
2023-02-05T15:03:33.440Z,61545.03
2023-02-05T15:08:47.470Z,61575.09
2023-02-05T15:14:33.218Z,61424.75
2023-02-05T15:19:42.880Z,61376.63
2023-02-05T15:24:50.501Z,61412.72
2023-02-05T15:29:57.437Z,61292.44
2023-02-05T15:35:06.240Z,61647.28
2023-02-05T15:40:17.644Z,61356.59
2023-02-05T15:45:26.304Z,61637.25
2023-02-05T15:50:31.540Z,61128.06
2023-02-05T15:55:37.023Z,61248.34
2023-02-05T16:00:46.318Z,61621.22
2023-02-05T16:05:52.750Z,61428.75
2023-02-05T16:11:02.024Z,61009.78
2023-02-05T16:16:11.007Z,60851.44
2023-02-05T16:21:18.534Z,61059.91
2023-02-05T16:26:26.912Z,60731.19
2023-02-05T16:31:33.152Z,60675.06
2023-02-05T16:36:41.400Z,60620.94
2023-02-05T16:41:48.832Z,60614.94
2023-02-05T16:47:07.027Z,60787.31
2023-02-05T16:52:31.980Z,61120.03
2023-02-05T16:57:40.031Z,61120.03
2023-02-05T17:02:44.419Z,61230.28
2023-02-05T17:07:56.090Z,61298.47
2023-02-05T17:13:05.096Z,61502.94
2023-02-05T17:18:19.879Z,61496.91
2023-02-05T17:23:23.727Z,61402.69
2023-02-05T17:28:29.969Z,61579.13
2023-02-05T17:33:33.768Z,60875.50
2023-02-05T17:38:37.479Z,61132.06
2023-02-05T17:43:42.779Z,61667.34
2023-02-05T17:48:46.540Z,61430.75
2023-02-05T17:53:51.184Z,61549.03
2023-02-05T17:58:58.360Z,61601.16
2023-02-05T18:04:02.146Z,61589.13
2023-02-05T18:09:05.967Z,61360.59
2023-02-05T18:14:11.584Z,61539.03
2023-02-05T18:19:15.366Z,61272.41
2023-02-05T18:24:19.220Z,61079.94
2023-02-05T18:29:24.391Z,60731.19
2023-02-05T18:34:28.268Z,60671.03
2023-02-05T18:39:32.324Z,60087.81
2023-02-05T18:44:37.664Z,60426.53
2023-02-05T18:49:41.414Z,60448.56
2023-02-05T18:54:46.006Z,60025.69
2023-02-05T18:59:51.382Z,59861.38
2023-02-05T19:04:56.428Z,59849.34
2023-02-05T19:10:01.442Z,59891.44
2023-02-05T19:15:07.544Z,60021.69
2023-02-05T19:20:12.356Z,60149.94
2023-02-05T19:25:16.374Z,60344.34
2023-02-05T19:30:22.723Z,60157.97
2023-02-05T19:35:26.861Z,59889.44
2023-02-05T19:40:31.470Z,60045.75
2023-02-05T19:45:39.256Z,59931.50
2023-02-05T19:50:44.061Z,60196.03
2023-02-05T19:55:47.917Z,60139.94
2023-02-05T20:00:53.476Z,60095.84
2023-02-05T20:06:01.139Z,60294.25
2023-02-05T20:11:05.668Z,60178.00
2023-02-05T20:16:13.784Z,60218.09
2023-02-05T20:21:19.312Z,60182.00
2023-02-05T20:26:23.983Z,60071.78
2023-02-05T20:31:41.556Z,60250.16
2023-02-05T20:36:47.222Z,60392.44
2023-02-05T20:41:53.161Z,60492.66
2023-02-05T20:46:58.651Z,60695.09
2023-02-05T20:52:02.643Z,60222.09
2023-02-05T20:57:07.890Z,60276.22
2023-02-05T21:02:13.949Z,60586.88
2023-02-05T21:07:17.997Z,60606.91
2023-02-05T21:12:21.703Z,60358.38
2023-02-05T21:17:27.005Z,60398.47
2023-02-05T21:22:31.718Z,60165.97
2023-02-05T21:27:36.222Z,60506.69
2023-02-05T21:32:42.774Z,60302.25
2023-02-05T21:37:46.666Z,59524.72
2023-02-05T21:42:50.444Z,59176.09
2023-02-05T21:47:55.685Z,59071.91
2023-02-05T21:52:59.451Z,58931.66
2023-02-05T21:58:03.326Z,58793.41
2023-02-05T22:03:08.515Z,58767.38
2023-02-05T22:08:13.280Z,58490.91
2023-02-05T22:13:17.171Z,58627.13
2023-02-05T22:18:22.220Z,58490.91
2023-02-05T22:23:26.072Z,58332.66
2023-02-05T22:28:29.935Z,58418.81
2023-02-05T22:33:36.096Z,58492.91
2023-02-05T22:38:41.953Z,58344.69
2023-02-05T22:43:45.954Z,58104.31
2023-02-05T22:48:52.404Z,58044.22
2023-02-05T22:53:57.214Z,58120.34
2023-02-05T22:59:03.288Z,58178.41
2023-02-05T23:04:10.330Z,58883.56
2023-02-05T23:09:16.011Z,59384.47
2023-02-05T23:14:19.825Z,59733.13
2023-02-05T23:19:24.974Z,59921.50
2023-02-05T23:24:28.727Z,59660.97
2023-02-05T23:29:32.492Z,60007.66
2023-02-05T23:34:37.811Z,60045.75
2023-02-05T23:39:41.564Z,60021.69
2023-02-05T23:44:45.267Z,60115.88
2023-02-05T23:49:50.380Z,60214.09
2023-02-05T23:54:54.098Z,60334.31
2023-02-05T23:59:57.801Z,60342.34
